Time;durP1;ratioP1;P1;durP2;ratioP2;P2;SDS_P1;SDS_P2;PMS_P1;PMS_P2;Temp;Humidity;BMP_temperature;BMP_pressure;BME280_temperature;BME280_humidity;BME280_pressure;Samples;Min_cycle;Max_cycle;Signal;HPM_P1;HPM_P2
2023/07/18 00:00:48;;;;;;;;;;;;;;;16.07;82.34;95688.66;6299131;28;19933;-69
2023/07/18 00:03:49;;;;;;;;;;;;;;;16.03;82.68;95684.66;6297898;28;19928;-70
2023/07/18 00:06:50;;;;;;;;;;;;;;;15.98;82.97;95678.19;6298580;28;19994;-69
2023/07/18 00:09:51;;;;;;;;;;;;;;;16.02;82.99;95676.88;6298886;28;20002;-69
2023/07/18 00:12:55;;;;;;;;;;;;;;;16.02;83.07;95680.38;6298733;28;19924;-69
2023/07/18 00:15:58;;;;;;;;;;;;;;;16.10;83.17;95688.31;6264772;28;19928;-68
2023/07/18 00:19:03;;;;;;;;;;;;;;;16.11;82.93;95683.88;6298625;28;19924;-70
2023/07/18 00:22:07;;;;;;;;;;;;;;;16.06;82.72;95692.31;6297667;28;19924;-69
2023/07/18 00:25:13;;;;;;;;;;;;;;;16.00;83.02;95695.63;6280887;28;19924;-68
2023/07/18 00:28:14;;;;;;;;;;;;;;;15.93;83.00;95694.59;6297292;28;19958;-70
2023/07/18 00:31:17;;;;;;;;;;;;;;;15.95;82.85;95689.94;6297945;28;19931;-69
2023/07/18 00:34:21;;;;;;;;;;;;;;;16.17;82.71;95702.63;6280514;28;19924;-69
2023/07/18 00:37:23;;;;;;;;;;;;;;;16.13;81.93;95697.78;6280064;28;19931;-70
2023/07/18 00:40:24;;;;;;;;;;;;;;;16.10;81.91;95700.75;6297258;28;19982;-69
2023/07/18 00:43:30;;;;;;;;;;;;;;;15.97;82.51;95714.50;6297967;28;19924;-69
2023/07/18 00:46:34;;;;;;;;;;;;;;;15.90;82.83;95719.59;6297047;28;20023;-70
2023/07/18 00:49:35;;;;;;;;;;;;;;;16.11;82.70;95716.53;6297012;28;19924;-69
2023/07/18 00:52:41;;;;;;;;;;;;;;;16.03;82.61;95713.84;6297811;28;19931;-69
2023/07/18 00:55:44;;;;;;;;;;;;;;;16.04;82.78;95715.50;6296801;28;19920;-70
2023/07/18 00:58:50;;;;;;;;;;;;;;;16.19;82.02;95714.88;6297556;28;19924;-69
2023/07/18 01:01:58;;;;;;;;;;;;;;;16.15;82.31;95717.84;6297424;28;19975;-71
2023/07/18 01:05:01;;;;;;;;;;;;;;;16.11;82.36;95723.69;6279529;28;20416;-70
2023/07/18 01:08:03;;;;;;;;;;;;;;;16.14;82.41;95721.53;6297373;28;19925;-70
2023/07/18 01:11:06;;;;;;;;;;;;;;;16.20;82.52;95714.72;6279141;28;19932;-70
2023/07/18 01:14:10;;;;;;;;;;;;;;;16.41;82.37;95716.91;6297141;28;20381;-70
2023/07/18 01:17:13;;;;;;;;;;;;;;;16.36;81.49;95720.09;6296753;28;19924;-70
2023/07/18 01:20:18;;;;;;;;;;;;;;;16.36;81.76;95716.56;6296231;28;19948;-69
2023/07/18 01:23:21;;;;;;;;;;;;;;;16.39;81.67;95719.75;6296601;28;19931;-70
2023/07/18 01:26:24;;;;;;;;;;;;;;;16.45;81.46;95728.88;6296876;28;19924;-69
2023/07/18 01:29:28;;;;;;;;;;;;;;;16.58;81.27;95729.22;6296715;28;20398;-70
2023/07/18 01:32:30;;;;;;;;;;;;;;;16.65;81.13;95728.59;6296234;28;19931;-70
2023/07/18 01:35:32;;;;;;;;;;;;;;;16.78;81.06;95726.28;6295683;28;19971;-69
2023/07/18 01:38:34;;;;;;;;;;;;;;;16.79;80.21;95730.59;6295887;28;20134;-69
2023/07/18 01:41:35;;;;;;;;;;;;;;;16.77;80.47;95733.41;6296373;28;19924;-70
2023/07/18 01:44:38;;;;;;;;;;;;;;;16.89;79.76;95725.94;6296374;28;19931;-69
2023/07/18 01:47:42;;;;;;;;;;;;;;;16.94;78.77;95722.78;6296372;28;19995;-69
2023/07/18 01:50:48;;;;;;;;;;;;;;;16.83;78.79;95727.44;6296531;28;20313;-70
2023/07/18 01:53:54;;;;;;;;;;;;;;;16.86;79.05;95720.97;6262502;28;19928;-71
2023/07/18 01:56:55;;;;;;;;;;;;;;;17.04;79.31;95718.97;6296198;28;19931;-70
2023/07/18 01:59:59;;;;;;;;;;;;;;;17.39;78.50;95724.88;6295522;28;20018;-70
2023/07/18 02:03:02;;;;;;;;;;;;;;;17.65;76.90;95721.16;6296031;28;19928;-70
2023/07/18 02:06:04;;;;;;;;;;;;;;;17.76;76.10;95718.13;6295672;28;19926;-70
2023/07/18 02:09:05;;;;;;;;;;;;;;;17.94;76.37;95724.06;6295902;28;20290;-70
2023/07/18 02:12:07;;;;;;;;;;;;;;;18.00;76.19;95725.19;6295686;28;20374;-68
2023/07/18 02:15:09;;;;;;;;;;;;;;;18.02;76.26;95711.72;6294758;28;19939;-69
2023/07/18 02:18:14;;;;;;;;;;;;;;;18.06;76.46;95718.34;6295863;28;19924;-69
2023/07/18 02:21:19;;;;;;;;;;;;;;;18.07;75.68;95720.03;6276853;28;19990;-70
2023/07/18 02:24:22;;;;;;;;;;;;;;;17.87;75.49;95709.78;6277965;28;19924;-70
2023/07/18 02:27:23;;;;;;;;;;;;;;;17.94;75.67;95709.91;6295086;28;20420;-69
2023/07/18 02:30:27;;;;;;;;;;;;;;;18.16;75.42;95711.81;6295279;28;20036;-68
2023/07/18 02:33:30;;;;;;;;;;;;;;;18.45;74.97;95712.13;6295208;28;20461;-71
2023/07/18 02:36:35;;;;;;;;;;;;;;;18.64;73.97;95714.34;6277594;28;19931;-72
2023/07/18 02:39:38;;;;;;;;;;;;;;;18.77;73.09;95717.28;6277040;28;20023;-70
2023/07/18 02:42:39;;;;;;;;;;;;;;;19.15;73.11;95719.94;6295085;28;19931;-70
2023/07/18 02:45:41;;;;;;;;;;;;;;;19.74;71.78;95725.38;6294389;28;19924;-69
2023/07/18 02:48:52;;;;;;;;;;;;;;;19.85;71.17;95712.56;6295000;28;20041;-69
2023/07/18 02:52:01;;;;;;;;;;;;;;;19.77;69.96;95729.50;6295348;28;19925;-71
2023/07/18 02:55:05;;;;;;;;;;;;;;;19.52;70.69;95720.91;6277445;28;20381;-71
2023/07/18 02:58:09;;;;;;;;;;;;;;;19.44;69.77;95723.66;6277438;28;20373;-70
2023/07/18 03:01:12;;;;;;;;;;;;;;;19.62;70.04;95729.47;6294848;28;20337;-69
2023/07/18 03:04:16;;;;;;;;;;;;;;;19.73;70.05;95729.06;6294783;28;19959;-69
2023/07/18 03:07:22;;;;;;;;;;;;;;;20.01;68.31;95728.38;6294673;28;19924;-70
2023/07/18 03:10:25;;;;;;;;;;;;;;;20.40;67.75;95729.88;6293737;28;19931;-71
2023/07/18 03:13:29;;;;;;;;;;;;;;;20.69;65.44;95734.31;6276311;28;19924;-71
2023/07/18 03:16:30;;;;;;;;;;;;;;;20.40;66.50;95738.72;6276681;28;20529;-70
2023/07/18 03:19:34;;;;;;;;;;;;;;;20.22;67.46;95742.81;6298057;28;20027;-70
2023/07/18 03:22:38;;;;;;;;;;;;;;;20.17;67.76;95744.19;6299463;28;20309;-70
2023/07/18 03:25:42;;;;;;;;;;;;;;;20.03;67.77;95745.03;6299619;28;19924;-70
2023/07/18 03:28:43;;;;;;;;;;;;;;;20.02;67.93;95748.75;6299442;28;19924;-70
2023/07/18 03:31:47;;;;;;;;;;;;;;;20.33;67.10;95748.50;6299767;28;19932;-70
2023/07/18 03:34:51;;;;;;;;;;;;;;;20.91;65.44;95743.16;6299486;28;20023;-70
2023/07/18 03:37:55;;;;;;;;;;;;;;;21.32;62.89;95739.84;6297353;28;20409;-70
2023/07/18 03:41:01;;;;;;;;;;;;;;;21.18;63.29;95740.75;6299250;28;19932;-70
2023/07/18 03:44:03;;;;;;;;;;;;;;;21.01;62.90;95734.84;6299386;28;19924;-71
2023/07/18 03:47:09;;;;;;;;;;;;;;;21.16;62.61;95740.09;6281576;28;19924;-70
2023/07/18 03:50:15;;;;;;;;;;;;;;;21.47;62.94;95737.91;6298779;28;19924;-70
2023/07/18 03:53:19;;;;;;;;;;;;;;;21.90;62.04;95743.13;6298963;28;20416;-70
2023/07/18 03:56:22;;;;;;;;;;;;;;;21.95;61.48;95746.03;6298377;28;19920;-70
2023/07/18 03:59:26;;;;;;;;;;;;;;;21.96;62.30;95746.84;6298742;28;19924;-70
2023/07/18 04:02:29;;;;;;;;;;;;;;;22.28;61.68;95739.19;6298715;28;19920;-70
2023/07/18 04:05:30;;;;;;;;;;;;;;;22.74;60.57;95738.53;6298577;28;19924;-69
2023/07/18 04:08:33;;;;;;;;;;;;;;;23.21;58.32;95740.28;6297803;28;19925;-70
2023/07/18 04:11:37;;;;;;;;;;;;;;;23.19;58.15;95734.28;6298344;28;20297;-69
2023/07/18 04:14:41;;;;;;;;;;;;;;;23.12;59.18;95730.75;6298621;28;19932;-71
2023/07/18 04:17:44;;;;;;;;;;;;;;;22.96;59.25;95731.19;6298402;28;20353;-70
2023/07/18 04:20:45;;;;;;;;;;;;;;;22.34;60.08;95723.16;6297919;28;19924;-71
2023/07/18 04:23:48;;;;;;;;;;;;;;;21.83;59.73;95714.66;6298367;28;20306;-70
2023/07/18 04:26:52;;;;;;;;;;;;;;;21.64;60.13;95710.84;6298304;28;19931;-70
2023/07/18 04:29:53;;;;;;;;;;;;;;;22.11;58.60;95709.25;6298041;28;19924;-69
2023/07/18 04:32:57;;;;;;;;;;;;;;;22.43;57.38;95705.03;6298231;28;19924;-70
2023/07/18 04:35:58;;;;;;;;;;;;;;;22.51;57.85;95696.81;6297249;28;19920;-70
2023/07/18 04:39:02;;;;;;;;;;;;;;;23.15;57.27;95708.88;6279640;28;19925;-71
2023/07/18 04:42:05;;;;;;;;;;;;;;;23.58;54.71;95695.03;6298035;28;19926;-69
2023/07/18 04:45:08;;;;;;;;;;;;;;;23.48;54.65;95695.44;6297705;28;19932;-70
2023/07/18 04:48:15;;;;;;;;;;;;;;;23.24;53.97;95696.91;6297572;28;19944;-70
2023/07/18 04:51:19;;;;;;;;;;;;;;;22.96;53.27;95693.63;6297705;28;19924;-71
2023/07/18 04:54:22;;;;;;;;;;;;;;;23.06;53.59;95688.66;6297563;28;20393;-70
2023/07/18 04:57:25;;;;;;;;;;;;;;;23.52;52.14;95698.53;6296745;28;20018;-70
2023/07/18 05:00:28;;;;;;;;;;;;;;;26.48;46.71;95701.44;6296881;28;19966;-70
2023/07/18 05:03:33;;;;;;;;;;;;;;;29.59;40.51;95693.84;6297174;28;19983;-70
2023/07/18 05:06:33;;;;;;;;;;;;;;;32.93;37.31;95685.66;6296555;28;20010;-70
2023/07/18 05:09:37;;;;;;;;;;;;;;;33.27;34.20;95679.75;6296883;28;19924;-71
2023/07/18 05:12:38;;;;;;;;;;;;;;;34.85;32.03;95681.28;6278571;28;20385;-70
2023/07/18 05:15:42;;;;;;;;;;;;;;;36.30;30.86;95682.50;6296901;28;19930;-70
2023/07/18 05:18:45;;;;;;;;;;;;;;;33.78;33.88;95674.25;6296410;28;19925;-70
2023/07/18 05:21:50;;;;;;;;;;;;;;;30.87;34.74;95669.19;6297186;28;19927;-70
2023/07/18 05:24:51;;;;;;;;;;;;;;;28.77;38.34;95667.28;6278422;28;20402;-70
2023/07/18 05:27:56;;;;;;;;;;;;;;;27.68;39.80;95662.59;6296620;28;19920;-70
2023/07/18 05:30:57;;;;;;;;;;;;;;;26.56;41.52;95649.91;6296078;28;20021;-70
2023/07/18 05:34:03;;;;;;;;;;;;;;;27.26;41.06;95655.47;6296422;28;19920;-70
2023/07/18 05:37:05;;;;;;;;;;;;;;;29.43;37.77;95646.72;6278667;28;19924;-69
2023/07/18 05:40:10;;;;;;;;;;;;;;;30.55;35.63;95652.03;6296408;28;20394;-70
2023/07/18 05:43:13;;;;;;;;;;;;;;;30.42;35.16;95664.06;6296206;28;19924;-72
2023/07/18 05:46:17;;;;;;;;;;;;;;;29.21;36.63;95670.22;6295333;28;19947;-69
2023/07/18 05:49:18;;;;;;;;;;;;;;;27.76;40.21;95673.88;6295300;28;19924;-70
2023/07/18 05:52:19;;;;;;;;;;;;;;;26.91;41.68;95668.88;6278299;28;19932;-70
2023/07/18 05:55:22;;;;;;;;;;;;;;;25.97;43.70;95663.91;6296129;28;20011;-70
2023/07/18 05:58:28;;;;;;;;;;;;;;;24.99;45.94;95661.91;6295945;28;19924;-70
2023/07/18 06:01:32;;;;;;;;;;;;;;;24.79;46.14;95653.97;6295629;28;19920;-70
2023/07/18 06:04:35;;;;;;;;;;;;;;;24.17;47.10;95659.06;6295088;28;20283;-70
2023/07/18 06:07:39;;;;;;;;;;;;;;;24.60;46.80;95653.09;6295875;28;20080;-70
2023/07/18 06:10:42;;;;;;;;;;;;;;;24.57;47.22;95653.53;6295125;28;19924;-71
2023/07/18 06:13:46;;;;;;;;;;;;;;;24.74;46.53;95647.59;6295599;28;20408;-70
2023/07/18 06:16:50;;;;;;;;;;;;;;;25.13;46.15;95651.84;6294660;28;20015;-69
2023/07/18 06:19:51;;;;;;;;;;;;;;;28.86;40.50;95641.44;6295263;28;19934;-70
2023/07/18 06:22:54;;;;;;;;;;;;;;;33.76;33.90;95660.88;6294844;28;20334;-70
2023/07/18 06:25:57;;;;;;;;;;;;;;;36.75;28.82;95663.88;6295688;28;19956;-70
2023/07/18 06:28:58;;;;;;;;;;;;;;;38.62;24.23;95652.66;6294160;28;19924;-70
2023/07/18 06:32:05;;;;;;;;;;;;;;;39.98;25.03;95659.03;6294921;28;20019;-71
2023/07/18 06:35:10;;;;;;;;;;;;;;;41.33;23.82;95647.34;6295214;28;19924;-70
2023/07/18 06:38:16;;;;;;;;;;;;;;;38.75;27.36;95639.97;6295340;28;19931;-71
2023/07/18 06:41:18;;;;;;;;;;;;;;;39.72;24.01;95640.44;6295151;28;19924;-71
2023/07/18 06:44:21;;;;;;;;;;;;;;;41.11;22.57;95633.72;6293971;28;19924;-71
2023/07/18 06:47:22;;;;;;;;;;;;;;;42.33;21.52;95635.06;6294823;28;19931;-71
2023/07/18 06:50:25;;;;;;;;;;;;;;;43.76;18.35;95633.31;6294994;28;20571;-71
2023/07/18 06:53:29;;;;;;;;;;;;;;;44.02;17.63;95633.84;6293106;28;19924;-72
2023/07/18 06:56:32;;;;;;;;;;;;;;;44.32;16.88;95639.97;6295245;28;20063;-70
2023/07/18 06:59:35;;;;;;;;;;;;;;;44.77;15.87;95635.50;6294810;28;20437;-71
2023/07/18 07:02:40;;;;;;;;;;;;;;;44.58;16.57;95627.75;6294545;28;20389;-71
2023/07/18 07:05:46;;;;;;;;;;;;;;;42.35;17.64;95610.69;6294830;28;19939;-71
2023/07/18 07:08:50;;;;;;;;;;;;;;;41.27;19.09;95613.56;6293934;28;19970;-71
2023/07/18 07:11:53;;;;;;;;;;;;;;;42.71;17.50;95627.84;6294649;28;19924;-73
2023/07/18 07:15:00;;;;;;;;;;;;;;;43.68;17.58;95627.53;6294646;28;19924;-71
2023/07/18 07:18:06;;;;;;;;;;;;;;;45.72;15.36;95627.50;6294667;28;19924;-72
2023/07/18 07:21:10;;;;;;;;;;;;;;;45.40;16.31;95623.84;6294548;28;19924;-71
2023/07/18 07:24:14;;;;;;;;;;;;;;;44.37;16.72;95614.81;6294398;28;20023;-72
2023/07/18 07:27:19;;;;;;;;;;;;;;;45.20;16.00;95600.69;6293838;28;20290;-72
2023/07/18 07:30:23;;;;;;;;;;;;;;;43.91;16.86;95602.19;6294429;28;20389;-71
2023/07/18 07:33:29;;;;;;;;;;;;;;;41.63;18.10;95589.50;6294482;28;20307;-71
2023/07/18 07:36:33;;;;;;;;;;;;;;;42.41;17.43;95580.88;6294267;28;19924;-73
2023/07/18 07:39:37;;;;;;;;;;;;;;;41.14;18.49;95572.38;6294491;28;19924;-72
2023/07/18 07:42:42;;;;;;;;;;;;;;;38.95;20.10;95560.91;6294411;28;19925;-72
2023/07/18 07:45:45;;;;;;;;;;;;;;;39.02;20.26;95558.56;6294348;28;20014;-72
2023/07/18 07:48:51;;;;;;;;;;;;;;;38.97;21.19;95558.69;6294236;28;19924;-72
2023/07/18 07:51:54;;;;;;;;;;;;;;;41.95;18.41;95558.50;6293963;28;19935;-71
2023/07/18 07:55:01;;;;;;;;;;;;;;;42.31;17.22;95548.88;6276804;28;19925;-72
2023/07/18 07:58:05;;;;;;;;;;;;;;;42.60;17.71;95550.78;6293888;28;19932;-72
2023/07/18 08:01:10;;;;;;;;;;;;;;;43.53;17.38;95550.59;6293488;28;20427;-72
2023/07/18 08:04:13;;;;;;;;;;;;;;;40.66;18.98;95534.75;6294248;28;19924;-72
2023/07/18 08:07:17;;;;;;;;;;;;;;;39.44;19.78;95528.88;6298716;28;19924;-72
2023/07/18 08:10:18;;;;;;;;;;;;;;;41.62;18.62;95527.13;6297448;28;19924;-72
2023/07/18 08:13:22;;;;;;;;;;;;;;;44.17;16.18;95531.75;6298192;28;19924;-73
2023/07/18 08:16:24;;;;;;;;;;;;;;;46.76;15.96;95533.50;6297318;28;19928;-72
2023/07/18 08:19:28;;;;;;;;;;;;;;;44.02;17.01;95528.50;6297428;28;20462;-73
2023/07/18 08:22:33;;;;;;;;;;;;;;;40.29;19.58;95503.91;6298304;28;19936;-73
2023/07/18 08:25:35;;;;;;;;;;;;;;;36.51;22.63;95497.56;6279442;28;20313;-72
2023/07/18 08:28:36;;;;;;;;;;;;;;;34.03;25.50;95495.16;6297715;28;20019;-72
2023/07/18 08:31:38;;;;;;;;;;;;;;;31.90;28.09;95493.16;6297387;28;20214;-71
2023/07/18 08:34:39;;;;;;;;;;;;;;;29.69;30.67;95517.00;6298002;28;19962;-71
2023/07/18 08:37:43;;;;;;;;;;;;;;;28.79;39.42;95554.16;6298123;28;19939;-79
2023/07/18 08:40:44;;;;;;;;;;;;;;;24.76;50.00;95567.53;6279747;28;20010;-71
2023/07/18 08:43:48;;;;;;;;;;;;;;;21.26;58.24;95548.00;6297852;28;20026;-70
2023/07/18 08:46:54;;;;;;;;;;;;;;;20.19;61.70;95531.19;6298063;28;19928;-70
2023/07/18 08:50:02;;;;;;;;;;;;;;;19.15;66.20;95519.16;6298168;28;19924;-70
2023/07/18 08:53:07;;;;;;;;;;;;;;;18.90;69.66;95518.59;6298072;28;19924;-69
2023/07/18 08:56:14;;;;;;;;;;;;;;;19.33;70.41;95526.75;6297071;28;20421;-68
2023/07/18 08:59:15;;;;;;;;;;;;;;;19.72;71.44;95519.22;6296830;28;19931;-68
2023/07/18 09:02:18;;;;;;;;;;;;;;;20.13;71.61;95520.44;6297659;28;20386;-70
2023/07/18 09:05:32;;;;;;;;;;;;;;;20.33;73.18;95521.44;6297102;28;19924;-71
2023/07/18 09:08:44;;;;;;;;;;;;;;;20.90;74.69;95522.28;6297442;28;19924;-71
2023/07/18 09:11:55;;;;;;;;;;;;;;;21.34;75.81;95513.00;6297342;28;19924;-70
2023/07/18 09:14:56;;;;;;;;;;;;;;;22.17;75.64;95518.22;6279123;28;19931;-72
2023/07/18 09:18:05;;;;;;;;;;;;;;;23.07;77.37;95518.59;6295664;28;19920;-71
2023/07/18 09:21:10;;;;;;;;;;;;;;;24.52;78.64;95510.84;6279234;28;20018;-72
2023/07/18 09:24:13;;;;;;;;;;;;;;;26.85;71.87;95518.66;6296952;28;19925;-71
2023/07/18 09:27:17;;;;;;;;;;;;;;;30.62;63.97;95533.16;6296163;28;20070;-70
2023/07/18 09:30:28;;;;;;;;;;;;;;;33.05;59.75;95539.09;6295703;28;20125;-70
2023/07/18 09:33:29;;;;;;;;;;;;;;;35.34;58.99;95540.09;6296131;28;19932;-70
2023/07/18 09:36:33;;;;;;;;;;;;;;;37.90;55.15;95537.09;6294874;28;19925;-69
2023/07/18 09:39:36;;;;;;;;;;;;;;;39.59;53.87;95533.97;6295828;28;19929;-70
2023/07/18 09:42:38;;;;;;;;;;;;;;;38.12;56.04;95530.91;6295383;28;19924;-71
2023/07/18 09:45:42;;;;;;;;;;;;;;;36.70;60.26;95522.22;6278111;28;19925;-69
2023/07/18 09:48:46;;;;;;;;;;;;;;;36.88;59.23;95517.81;6296196;28;20262;-70
2023/07/18 09:51:51;;;;;;;;;;;;;;;36.07;59.27;95498.78;6277093;28;19932;-70
2023/07/18 09:54:56;;;;;;;;;;;;;;;34.34;65.35;95499.38;6295711;28;19928;-70
2023/07/18 09:57:59;;;;;;;;;;;;;;;33.63;66.15;95489.66;6295393;28;19924;-71
2023/07/18 10:01:04;;;;;;;;;;;;;;;34.72;62.88;95491.44;6295879;28;19928;-71
2023/07/18 10:04:09;;;;;;;;;;;;;;;34.04;56.06;95494.06;6294920;28;20398;-69
2023/07/18 10:07:12;;;;;;;;;;;;;;;31.70;49.00;95483.88;6295788;28;20374;-69
2023/07/18 10:10:17;;;;;;;;;;;;;;;31.18;59.51;95482.00;6277268;28;19925;-70
2023/07/18 10:13:19;;;;;;;;;;;;;;;32.35;48.00;95473.41;6295342;28;19931;-70
2023/07/18 10:16:27;;;;;;;;;;;;;;;31.61;40.97;95480.03;6295692;28;19929;-70
2023/07/18 10:19:45;;;;;;;;;;;;;;;30.65;48.90;95471.00;6295543;28;19924;-70
2023/07/18 10:22:58;;;;;;;;;;;;;;;32.43;49.23;95464.69;6295384;28;19924;-71
2023/07/18 10:26:04;;;;;;;;;;;;;;;34.85;44.99;95479.03;6295345;28;19928;-71
2023/07/18 10:29:10;;;;;;;;;;;;;;;34.38;43.17;95473.09;6295332;28;20401;-70
2023/07/18 10:32:28;;;;;;;;;;;;;;;32.47;44.36;95462.31;6295155;28;19981;-70
2023/07/18 10:35:33;;;;;;;;;;;;;;;30.92;40.15;95462.00;6295264;28;19928;-71
2023/07/18 10:38:35;;;;;;;;;;;;;;;29.40;40.05;95452.13;6276524;28;19931;-70
2023/07/18 10:41:36;;;;;;;;;;;;;;;28.00;44.37;95449.47;6276476;28;19975;-70
2023/07/18 10:44:44;;;;;;;;;;;;;;;27.27;45.86;95445.63;6294996;28;19924;-70
2023/07/18 10:47:45;;;;;;;;;;;;;;;26.86;47.88;95442.88;6294619;28;19946;-69
2023/07/18 10:50:48;;;;;;;;;;;;;;;26.78;47.14;95445.09;6294031;28;19994;-69
2023/07/18 10:53:53;;;;;;;;;;;;;;;26.48;46.36;95453.28;6294885;28;19924;-68
2023/07/18 10:57:00;;;;;;;;;;;;;;;26.14;48.61;95442.22;6294971;28;20386;-70
2023/07/18 11:00:04;;;;;;;;;;;;;;;25.71;49.15;95435.19;6294222;28;19966;-69
2023/07/18 11:03:07;;;;;;;;;;;;;;;24.96;50.50;95444.38;6294269;28;20291;-70
2023/07/18 11:06:09;;;;;;;;;;;;;;;24.22;51.60;95439.94;6294170;28;20027;-68
2023/07/18 11:09:12;;;;;;;;;;;;;;;23.90;52.37;95437.28;6276413;28;19931;-69
2023/07/18 11:12:18;;;;;;;;;;;;;;;23.44;52.50;95435.66;6294236;28;19931;-69
2023/07/18 11:15:22;;;;;;;;;;;;;;;23.03;53.29;95442.25;6294721;28;20385;-68
2023/07/18 11:18:25;;;;;;;;;;;;;;;22.85;55.93;95435.69;6294737;28;19925;-69
2023/07/18 11:21:28;;;;;;;;;;;;;;;22.74;53.61;95443.56;6294137;28;20000;-69
2023/07/18 11:24:31;;;;;;;;;;;;;;;22.36;54.42;95458.47;6275990;28;19924;-69
2023/07/18 11:27:36;;;;;;;;;;;;;;;21.48;56.64;95444.34;6294395;28;19924;-71
2023/07/18 11:30:37;;;;;;;;;;;;;;;20.70;58.85;95441.97;6293654;28;19979;-71
2023/07/18 11:33:38;;;;;;;;;;;;;;;20.02;60.64;95433.69;6293877;28;19963;-69
2023/07/18 11:36:39;;;;;;;;;;;;;;;19.79;63.75;95436.56;6294206;28;19931;-70
2023/07/18 11:39:46;;;;;;;;;;;;;;;19.38;65.68;95441.66;6295835;28;19932;-70
2023/07/18 11:42:50;;;;;;;;;;;;;;;19.03;67.59;95454.81;6299367;28;20305;-74
2023/07/18 11:45:55;;;;;;;;;;;;;;;18.58;69.04;95459.31;6299077;28;20386;-73
2023/07/18 11:49:00;;;;;;;;;;;;;;;17.28;71.90;95438.13;6299089;28;20293;-74
2023/07/18 11:52:05;;;;;;;;;;;;;;;16.88;73.50;95437.34;6299185;28;19924;-74
2023/07/18 11:55:06;;;;;;;;;;;;;;;17.12;74.26;95427.59;6298733;28;19924;-71
2023/07/18 11:58:10;;;;;;;;;;;;;;;17.57;74.04;95431.28;6298233;28;19932;-71
2023/07/18 12:01:14;;;;;;;;;;;;;;;18.12;76.03;95435.50;6280659;28;19924;-71
2023/07/18 12:04:15;;;;;;;;;;;;;;;18.77;76.76;95424.16;6298143;28;19930;-72
2023/07/18 12:07:21;;;;;;;;;;;;;;;19.29;74.98;95428.44;6298584;28;19924;-71
2023/07/18 12:10:22;;;;;;;;;;;;;;;19.77;76.65;95427.09;6297779;28;19955;-72
2023/07/18 12:13:25;;;;;;;;;;;;;;;20.29;77.05;95423.19;6297742;28;19925;-72
2023/07/18 12:16:31;;;;;;;;;;;;;;;20.62;74.68;95408.19;6298480;28;20058;-73
2023/07/18 12:19:36;;;;;;;;;;;;;;;20.86;74.86;95403.38;6298254;28;19924;-72
2023/07/18 12:22:40;;;;;;;;;;;;;;;21.28;76.50;95396.09;6297887;28;19951;-71
2023/07/18 12:25:43;;;;;;;;;;;;;;;20.95;77.30;95391.50;6298280;28;19924;-71
2023/07/18 12:28:54;;;;;;;;;;;;;;;21.08;78.37;95391.53;6298509;28;19935;-71
2023/07/18 12:31:57;;;;;;;;;;;;;;;21.40;79.20;95394.53;6297364;28;19924;-70
2023/07/18 12:35:01;;;;;;;;;;;;;;;21.61;79.45;95390.03;6297922;28;19925;-70
2023/07/18 12:38:06;;;;;;;;;;;;;;;21.71;79.99;95395.78;6297532;28;19930;-70
2023/07/18 12:41:08;;;;;;;;;;;;;;;21.96;80.68;95394.16;6297543;28;19925;-70
2023/07/18 12:44:14;;;;;;;;;;;;;;;22.45;80.84;95401.94;6297060;28;20341;-69
2023/07/18 12:47:22;;;;;;;;;;;;;;;23.36;79.82;95417.97;6297863;28;20301;-70
2023/07/18 12:50:23;;;;;;;;;;;;;;;23.84;79.46;95413.97;6295363;28;19924;-71
2023/07/18 12:53:26;;;;;;;;;;;;;;;24.03;79.62;95412.16;6297598;28;20364;-69
2023/07/18 12:56:30;;;;;;;;;;;;;;;24.03;79.92;95415.66;6296637;28;19923;-69
2023/07/18 12:59:31;;;;;;;;;;;;;;;24.04;80.07;95411.13;6297067;28;20428;-70
2023/07/18 13:02:35;;;;;;;;;;;;;;;24.33;80.31;95417.69;6296697;28;19983;-70
2023/07/18 13:05:36;;;;;;;;;;;;;;;24.82;80.24;95424.06;6296252;28;19925;-70
2023/07/18 13:08:38;;;;;;;;;;;;;;;24.76;79.34;95415.00;6296758;28;20079;-70
2023/07/18 13:11:44;;;;;;;;;;;;;;;24.55;79.42;95412.78;6297094;28;20023;-69
2023/07/18 13:14:47;;;;;;;;;;;;;;;24.34;79.74;95411.28;6295925;28;19931;-70
2023/07/18 13:17:48;;;;;;;;;;;;;;;24.26;80.24;95420.47;6278719;28;19924;-69
2023/07/18 13:20:49;;;;;;;;;;;;;;;24.17;73.84;95421.75;6296450;28;20041;-69
2023/07/18 13:23:50;;;;;;;;;;;;;;;23.81;71.41;95415.25;6296033;28;19964;-69
2023/07/18 13:26:51;;;;;;;;;;;;;;;23.64;70.26;95414.09;6296102;28;20394;-71
2023/07/18 13:29:55;;;;;;;;;;;;;;;23.53;69.54;95421.78;6296563;28;20357;-70
2023/07/18 13:32:56;;;;;;;;;;;;;;;23.55;64.00;95424.25;6296203;28;19943;-73
2023/07/18 13:35:58;;;;;;;;;;;;;;;23.28;63.48;95421.72;6277540;28;19926;-70
2023/07/18 13:39:01;;;;;;;;;;;;;;;22.81;64.52;95422.91;6295492;28;20349;-70
2023/07/18 13:42:03;;;;;;;;;;;;;;;22.92;66.69;95424.94;6295694;28;19932;-71
2023/07/18 13:45:07;;;;;;;;;;;;;;;22.67;65.54;95422.13;6279272;28;19932;-70
2023/07/18 13:48:11;;;;;;;;;;;;;;;22.61;66.91;95422.97;6296464;28;20381;-70
2023/07/18 13:51:15;;;;;;;;;;;;;;;22.53;66.65;95404.41;6296255;28;19928;-69
2023/07/18 13:54:21;;;;;;;;;;;;;;;22.52;67.41;95408.97;6296330;28;19924;-71
2023/07/18 13:57:27;;;;;;;;;;;;;;;22.61;66.10;95396.16;6296171;28;19924;-71
2023/07/18 14:00:30;;;;;;;;;;;;;;;22.54;62.14;95400.72;6294931;28;19935;-70
2023/07/18 14:03:34;;;;;;;;;;;;;;;22.13;62.74;95399.09;6295606;28;20408;-71
2023/07/18 14:06:41;;;;;;;;;;;;;;;21.86;64.26;95395.63;6295829;28;19978;-72
2023/07/18 14:09:43;;;;;;;;;;;;;;;22.07;63.02;95392.69;6294991;28;20464;-70
2023/07/18 14:12:47;;;;;;;;;;;;;;;22.10;61.39;95394.16;6295433;28;19924;-70
2023/07/18 14:15:54;;;;;;;;;;;;;;;21.84;60.89;95395.81;6295479;28;19971;-70
2023/07/18 14:18:56;;;;;;;;;;;;;;;21.80;61.09;95389.22;6294757;28;19924;-71
2023/07/18 14:21:59;;;;;;;;;;;;;;;21.83;61.09;95388.81;6295454;28;19928;-70
2023/07/18 14:25:02;;;;;;;;;;;;;;;21.92;61.32;95386.75;6295408;28;19924;-71
2023/07/18 14:28:06;;;;;;;;;;;;;;;22.27;59.99;95383.84;6295502;28;20440;-70
2023/07/18 14:31:07;;;;;;;;;;;;;;;22.13;60.04;95383.00;6277004;28;20046;-69
2023/07/18 14:34:11;;;;;;;;;;;;;;;22.13;59.81;95383.00;6294515;28;19924;-70
2023/07/18 14:37:12;;;;;;;;;;;;;;;21.79;61.12;95376.84;6293925;28;20046;-69
2023/07/18 14:40:13;;;;;;;;;;;;;;;21.64;61.61;95373.56;6294625;28;20294;-70
2023/07/18 14:43:27;;;;;;;;;;;;;;;21.60;60.16;95378.50;6294693;28;20027;-70
2023/07/18 14:46:33;;;;;;;;;;;;;;;21.19;60.87;95381.28;6293943;28;20314;-71
2023/07/18 14:49:37;;;;;;;;;;;;;;;21.10;61.66;95379.81;6294871;28;19925;-71
2023/07/18 14:52:43;;;;;;;;;;;;;;;21.14;60.13;95384.53;6294694;28;19928;-73
2023/07/18 14:55:44;;;;;;;;;;;;;;;21.00;61.04;95381.00;6294271;28;19924;-71
2023/07/18 14:58:47;;;;;;;;;;;;;;;21.10;61.42;95380.63;6294628;28;20315;-70
2023/07/18 15:01:51;;;;;;;;;;;;;;;21.24;60.55;95378.81;6295100;28;20362;-69
2023/07/18 15:04:53;;;;;;;;;;;;;;;21.13;61.06;95379.41;6294326;28;19924;-71
2023/07/18 15:07:59;;;;;;;;;;;;;;;21.12;62.53;95383.09;6294460;28;19924;-69
2023/07/18 15:11:01;;;;;;;;;;;;;;;21.11;63.50;95382.28;6293615;28;20023;-69
2023/07/18 15:14:06;;;;;;;;;;;;;;;20.97;62.43;95381.41;6293719;28;19924;-69
2023/07/18 15:17:08;;;;;;;;;;;;;;;20.61;62.71;95390.53;6294077;28;19932;-70
2023/07/18 15:20:09;;;;;;;;;;;;;;;20.29;63.63;95391.94;6294464;28;19947;-70
2023/07/18 15:23:13;;;;;;;;;;;;;;;20.04;64.01;95388.91;6294291;28;19929;-69
2023/07/18 15:26:15;;;;;;;;;;;;;;;19.82;65.01;95384.66;6292938;28;20886;-71
2023/07/18 15:29:16;;;;;;;;;;;;;;;19.68;64.73;95379.19;6293002;28;19924;-71
2023/07/18 15:32:17;;;;;;;;;;;;;;;19.63;64.65;95368.22;6293989;28;20412;-71
2023/07/18 15:35:19;;;;;;;;;;;;;;;19.54;64.78;95365.91;6294174;28;19931;-70
2023/07/18 15:38:25;;;;;;;;;;;;;;;19.43;64.60;95364.56;6294075;28;19928;-71
2023/07/18 15:41:27;;;;;;;;;;;;;;;19.39;64.23;95363.28;6293866;28;19925;-70
2023/07/18 15:44:32;;;;;;;;;;;;;;;19.34;63.80;95363.06;6294104;28;19925;-70
2023/07/18 15:47:34;;;;;;;;;;;;;;;19.18;64.21;95372.94;6293104;28;20425;-71
2023/07/18 15:50:37;;;;;;;;;;;;;;;19.08;64.22;95372.44;6293832;28;20401;-70
2023/07/18 15:53:42;;;;;;;;;;;;;;;19.02;64.53;95374.03;6293833;28;20411;-71
2023/07/18 15:56:51;;;;;;;;;;;;;;;18.90;64.96;95374.69;6293968;28;19977;-70